Time;durP1;ratioP1;P1;durP2;ratioP2;P2;SDS_P1;SDS_P2;PMS_P1;PMS_P2;Temp;Humidity;BMP_temperature;BMP_pressure;BME280_temperature;BME280_humidity;BME280_pressure;Samples;Min_cycle;Max_cycle;Signal;HPM_P1;HPM_P2
2022/01/06 00:00:42;;;;;;;5.43;4.32;;;4.90;99.90;;;;;;5033532;28;20294;-68
2022/01/06 00:03:08;;;;;;;10.75;4.53;;;4.90;99.90;;;;;;5034794;28;20551;-68
2022/01/06 00:05:35;;;;;;;8.00;4.43;;;4.90;99.90;;;;;;5037749;28;20338;-68
2022/01/06 00:08:02;;;;;;;8.98;4.57;;;4.90;99.90;;;;;;5037194;28;20310;-68
2022/01/06 00:10:30;;;;;;;9.07;4.45;;;5.00;99.90;;;;;;5037530;28;20683;-68
2022/01/06 00:13:11;;;;;;;7.55;4.65;;;4.90;99.90;;;;;;5037468;28;20204;-68
2022/01/06 00:15:55;;;;;;;6.65;3.78;;;5.00;99.90;;;;;;5037256;28;20557;-68
2022/01/06 00:18:31;;;;;;;6.57;4.43;;;5.00;99.90;;;;;;5037316;28;20224;-68
2022/01/06 00:23:43;;;;;;;8.07;4.22;;;5.00;99.90;;;;;;5038040;28;20192;-68
2022/01/06 00:26:10;;;;;;;6.57;4.43;;;5.00;99.90;;;;;;5037166;28;20204;-69
2022/01/06 00:28:38;;;;;;;6.57;4.25;;;5.00;99.90;;;;;;5037159;28;20232;-68
2022/01/06 00:31:06;;;;;;;7.72;4.07;;;5.10;99.90;;;;;;5037990;28;20606;-68
2022/01/06 00:33:34;;;;;;;7.13;4.05;;;5.00;99.90;;;;;;5037388;28;20298;-68
2022/01/06 00:36:01;;;;;;;8.98;5.05;;;5.00;99.90;;;;;;5037252;28;20226;-68
2022/01/06 00:38:28;;;;;;;7.22;3.75;;;5.00;99.90;;;;;;5037189;28;20216;-68
2022/01/06 00:40:56;;;;;;;6.72;4.28;;;5.00;99.90;;;;;;5037365;28;20212;-68
2022/01/06 00:43:23;;;;;;;10.48;4.40;;;4.90;99.90;;;;;;5037244;28;20254;-68
2022/01/06 00:45:50;;;;;;;7.00;4.18;;;4.90;99.90;;;;;;5037057;28;20581;-68
2022/01/06 00:48:18;;;;;;;5.18;4.13;;;4.80;99.90;;;;;;5037102;28;20251;-68
2022/01/06 00:50:45;;;;;;;8.95;3.95;;;4.80;99.90;;;;;;5037285;28;20291;-68
2022/01/06 00:53:12;;;;;;;6.00;4.00;;;4.80;99.90;;;;;;5037330;28;20255;-68
2022/01/06 00:55:40;;;;;;;8.02;4.05;;;4.80;99.90;;;;;;5036489;28;20208;-68
2022/01/06 00:58:07;;;;;;;6.13;4.50;;;4.90;99.90;;;;;;5036810;28;20315;-68
2022/01/06 01:00:39;;;;;;;6.50;4.85;;;4.90;99.90;;;;;;5036998;28;20207;-68
2022/01/06 01:03:07;;;;;;;6.10;4.10;;;4.80;99.90;;;;;;5036798;28;20286;-68
2022/01/06 01:05:35;;;;;;;6.47;4.65;;;4.80;99.90;;;;;;5036640;28;20291;-68
2022/01/06 01:08:02;;;;;;;8.77;4.40;;;4.80;99.90;;;;;;5037051;28;20314;-68
2022/01/06 01:10:29;;;;;;;6.60;4.05;;;4.80;99.90;;;;;;5036917;28;20224;-68
2022/01/06 01:12:56;;;;;;;6.03;4.68;;;4.80;99.90;;;;;;5036779;28;20203;-68
2022/01/06 01:15:23;;;;;;;9.68;4.38;;;4.90;99.90;;;;;;5035102;28;20633;-68
2022/01/06 01:17:51;;;;;;;5.75;4.60;;;4.80;99.90;;;;;;5036302;28;20260;-68
2022/01/06 01:20:19;;;;;;;8.07;4.35;;;4.90;99.90;;;;;;5036905;28;20618;-68
2022/01/06 01:22:48;;;;;;;7.15;4.50;;;4.90;99.90;;;;;;5036166;28;20291;-68
2022/01/06 01:25:16;;;;;;;7.63;4.43;;;4.90;99.90;;;;;;5036332;28;20205;-68
2022/01/06 01:27:44;;;;;;;7.65;4.28;;;4.80;99.90;;;;;;5036226;28;20232;-68
2022/01/06 01:30:14;;;;;;;5.57;3.80;;;4.90;99.90;;;;;;5035982;28;20318;-68
2022/01/06 01:32:46;;;;;;;9.38;4.20;;;4.90;99.90;;;;;;5036374;28;20212;-68
2022/01/06 01:35:14;;;;;;;6.75;4.65;;;5.00;99.90;;;;;;5035867;28;20196;-68
2022/01/06 01:37:41;;;;;;;5.65;4.68;;;5.00;99.90;;;;;;5035648;28;20233;-68
2022/01/06 01:40:11;;;;;;;8.13;4.45;;;5.10;99.90;;;;;;5035536;28;20211;-68
2022/01/06 01:42:38;;;;;;;5.50;4.05;;;5.10;99.90;;;;;;5036347;28;20206;-69
2022/01/06 01:45:08;;;;;;;7.35;4.40;;;5.10;99.90;;;;;;5035866;28;20299;-68
2022/01/06 01:47:40;;;;;;;8.10;4.90;;;5.10;99.90;;;;;;5035912;28;20234;-68
2022/01/06 01:50:12;;;;;;;5.68;4.40;;;5.10;99.90;;;;;;5035774;28;20284;-68
2022/01/06 01:52:41;;;;;;;7.43;4.97;;;5.00;99.90;;;;;;5035691;28;20643;-68
2022/01/06 01:55:11;;;;;;;9.65;4.60;;;5.00;99.90;;;;;;5035706;28;20204;-68
2022/01/06 01:57:38;;;;;;;8.48;4.38;;;5.00;99.90;;;;;;5035328;28;20660;-68
2022/01/06 02:00:07;;;;;;;7.43;4.72;;;5.00;99.90;;;;;;5035824;28;20629;-68
2022/01/06 02:02:34;;;;;;;8.77;5.07;;;5.00;99.90;;;;;;5035225;28;20295;-68
2022/01/06 02:05:00;;;;;;;10.07;4.30;;;5.00;99.90;;;;;;5035204;28;20298;-68
2022/01/06 02:07:28;;;;;;;7.63;5.18;;;5.00;99.90;;;;;;5035372;28;20220;-68
2022/01/06 02:09:54;;;;;;;8.23;4.78;;;5.10;99.90;;;;;;5035255;28;20250;-68
2022/01/06 02:12:28;;;;;;;6.60;4.95;;;5.10;99.90;;;;;;5035262;28;20299;-69
2022/01/06 02:14:54;;;;;;;9.55;4.72;;;5.10;99.90;;;;;;5034917;28;20247;-67
2022/01/06 02:17:21;;;;;;;5.05;4.05;;;5.10;99.90;;;;;;5035013;28;20318;-68
2022/01/06 02:19:57;;;;;;;8.40;5.25;;;5.10;99.90;;;;;;5035170;28;20287;-68
2022/01/06 02:22:24;;;;;;;7.03;4.43;;;5.10;99.90;;;;;;5035778;28;20199;-68
2022/01/06 02:24:51;;;;;;;7.28;4.65;;;5.10;99.90;;;;;;5035054;28;20707;-68
2022/01/06 02:27:20;;;;;;;6.35;4.50;;;5.10;99.90;;;;;;5034448;28;20242;-68
2022/01/06 02:29:48;;;;;;;6.28;4.00;;;5.10;99.90;;;;;;5035175;28;20586;-68
2022/01/06 02:32:16;;;;;;;10.48;4.95;;;5.10;99.90;;;;;;5034847;28;20204;-68
2022/01/06 02:34:44;;;;;;;6.30;4.47;;;5.10;99.90;;;;;;5034972;28;20231;-68
2022/01/06 02:37:13;;;;;;;7.32;4.50;;;5.00;99.90;;;;;;5035149;28;20235;-68
2022/01/06 02:39:40;;;;;;;6.53;4.40;;;5.10;99.90;;;;;;5034790;28;20671;-68
2022/01/06 02:42:07;;;;;;;7.82;4.35;;;5.10;99.90;;;;;;5034905;28;20565;-68
2022/01/06 02:44:37;;;;;;;6.18;5.18;;;5.00;99.90;;;;;;5034438;28;20204;-68
2022/01/06 02:47:04;;;;;;;6.85;4.75;;;5.00;99.90;;;;;;5034546;28;20231;-68
2022/01/06 02:49:31;;;;;;;9.93;4.55;;;5.00;99.90;;;;;;5034967;28;20228;-68
2022/01/06 02:51:58;;;;;;;5.78;4.38;;;4.90;99.90;;;;;;5035194;28;20204;-68
2022/01/06 02:54:27;;;;;;;6.35;4.10;;;4.90;99.90;;;;;;5035382;28;20210;-68
2022/01/06 02:56:54;;;;;;;5.18;3.85;;;4.90;99.90;;;;;;5034980;28;20705;-68
2022/01/06 02:59:20;;;;;;;6.07;4.07;;;4.90;99.90;;;;;;5035017;28;20203;-68
2022/01/06 03:01:47;;;;;;;5.68;4.03;;;4.90;99.90;;;;;;5034852;28;20204;-68
2022/01/06 03:04:14;;;;;;;7.38;4.80;;;4.90;99.90;;;;;;5034473;28;20204;-68
2022/01/06 03:06:42;;;;;;;6.35;4.07;;;4.90;99.90;;;;;;5034123;28;20223;-68
2022/01/06 03:09:09;;;;;;;4.63;4.10;;;5.00;99.90;;;;;;5034229;28;20268;-68
2022/01/06 03:11:42;;;;;;;4.30;3.90;;;5.00;99.90;;;;;;5034418;28;20203;-68
2022/01/06 03:14:09;;;;;;;5.47;4.00;;;5.00;99.90;;;;;;5034536;28;20204;-68
2022/01/06 03:16:36;;;;;;;6.43;4.22;;;5.00;99.90;;;;;;5033715;28;20207;-68
2022/01/06 03:19:03;;;;;;;7.82;4.18;;;5.10;99.90;;;;;;5034041;28;20204;-68
2022/01/06 03:21:30;;;;;;;6.13;4.07;;;5.10;99.90;;;;;;5033819;28;20204;-68
2022/01/06 03:23:57;;;;;;;6.80;4.10;;;5.10;99.90;;;;;;5034235;28;20204;-68
2022/01/06 03:26:23;;;;;;;10.80;4.25;;;5.20;99.90;;;;;;5034003;28;20204;-68
2022/01/06 03:28:52;;;;;;;5.95;4.35;;;5.20;99.90;;;;;;5034186;28;20225;-68
2022/01/06 03:31:20;;;;;;;6.03;3.90;;;5.30;99.90;;;;;;5034068;28;20204;-68
2022/01/06 03:33:47;;;;;;;4.88;3.40;;;5.30;99.90;;;;;;5034200;28;20299;-68
2022/01/06 03:36:13;;;;;;;5.50;4.40;;;5.30;99.90;;;;;;5033653;28;20204;-68
2022/01/06 03:38:40;;;;;;;7.30;4.30;;;5.20;99.90;;;;;;5033117;28;20255;-68
2022/01/06 03:41:07;;;;;;;4.88;4.20;;;5.20;99.90;;;;;;5033608;28;20207;-68
2022/01/06 03:43:34;;;;;;;6.82;4.40;;;5.20;99.90;;;;;;5033751;28;20232;-68
2022/01/06 03:46:02;;;;;;;3.47;2.85;;;5.20;99.90;;;;;;5033563;28;20200;-68
2022/01/06 03:48:29;;;;;;;6.15;4.00;;;5.10;99.90;;;;;;5033773;28;20232;-68
2022/01/06 03:50:56;;;;;;;5.93;3.95;;;5.10;99.90;;;;;;5033606;28;20334;-68
2022/01/06 03:53:22;;;;;;;16.35;8.65;;;5.00;99.90;;;;;;5034412;28;20295;-68
2022/01/06 03:55:49;;;;;;;6.90;4.30;;;4.90;99.90;;;;;;5033624;28;20200;-67
2022/01/06 03:58:16;;;;;;;6.20;4.22;;;4.90;99.90;;;;;;5033886;28;20234;-68
2022/01/06 04:00:43;;;;;;;6.00;4.60;;;4.90;99.90;;;;;;5033643;28;20670;-68
2022/01/06 04:03:11;;;;;;;5.38;4.13;;;4.90;99.90;;;;;;5033892;28;20286;-68
2022/01/06 04:05:38;;;;;;;7.15;4.15;;;5.00;99.90;;;;;;5033599;28;20204;-68
2022/01/06 04:08:05;;;;;;;5.68;4.15;;;5.00;99.90;;;;;;5033533;28;20231;-68
2022/01/06 04:10:32;;;;;;;5.72;3.88;;;5.00;99.90;;;;;;5033516;28;20234;-68
2022/01/06 04:12:59;;;;;;;5.82;3.65;;;5.10;99.90;;;;;;5033449;28;20290;-68
2022/01/06 04:15:26;;;;;;;4.35;3.83;;;5.10;99.90;;;;;;5033041;28;20682;-67
2022/01/06 04:17:53;;;;;;;5.57;3.80;;;5.10;99.90;;;;;;5033052;28;20315;-68
2022/01/06 04:20:22;;;;;;;4.63;3.75;;;5.10;99.90;;;;;;5033386;28;20211;-68
2022/01/06 04:22:49;;;;;;;7.03;4.38;;;5.10;99.90;;;;;;5033301;28;20607;-68
2022/01/06 04:25:16;;;;;;;7.55;3.92;;;5.20;99.90;;;;;;5032831;28;20287;-68
2022/01/06 04:27:42;;;;;;;6.03;3.88;;;5.20;99.90;;;;;;5032876;28;20323;-68
2022/01/06 04:30:10;;;;;;;5.03;3.90;;;5.20;99.90;;;;;;5033166;28;20319;-68
2022/01/06 04:32:38;;;;;;;7.25;4.47;;;5.30;99.90;;;;;;5033175;28;20208;-68
2022/01/06 04:35:06;;;;;;;6.35;4.43;;;5.30;99.90;;;;;;5032992;28;20295;-67
2022/01/06 04:37:35;;;;;;;4.18;3.78;;;5.30;99.90;;;;;;5033174;28;20230;-68
2022/01/06 04:40:02;;;;;;;4.78;3.67;;;5.30;99.90;;;;;;5033407;28;20619;-68
2022/01/06 04:42:29;;;;;;;5.15;3.60;;;5.30;99.90;;;;;;5033347;28;20299;-68
2022/01/06 04:44:56;;;;;;;5.90;4.50;;;5.30;99.90;;;;;;5033158;28;20291;-68
2022/01/06 04:47:23;;;;;;;11.90;7.00;;;5.30;99.90;;;;;;5033082;28;20653;-67
2022/01/06 04:49:49;;;;;;;10.02;6.07;;;5.30;99.90;;;;;;5035163;28;20227;-68
2022/01/06 04:52:16;;;;;;;6.03;3.70;;;5.30;99.90;;;;;;5036488;28;20633;-68
2022/01/06 04:54:45;;;;;;;4.45;3.85;;;5.30;99.90;;;;;;5036529;28;20325;-68
2022/01/06 04:57:11;;;;;;;10.02;3.80;;;5.20;99.90;;;;;;5036429;28;20224;-68
2022/01/06 04:59:38;;;;;;;6.68;4.85;;;5.20;99.90;;;;;;5036169;28;20204;-68
2022/01/06 05:02:06;;;;;;;8.63;4.35;;;5.20;99.90;;;;;;5036298;28;20200;-68
2022/01/06 05:04:32;;;;;;;5.05;4.25;;;5.20;99.90;;;;;;5035932;28;20287;-68
2022/01/06 05:06:59;;;;;;;5.43;4.22;;;5.20;99.90;;;;;;5036056;28;20220;-68
2022/01/06 05:09:26;;;;;;;6.10;3.85;;;5.20;99.90;;;;;;5036428;28;20306;-68
2022/01/06 05:11:54;;;;;;;5.10;3.55;;;5.20;99.90;;;;;;5036487;28;20210;-68
2022/01/06 05:14:21;;;;;;;6.28;4.00;;;5.20;99.90;;;;;;5036415;28;20200;-68
2022/01/06 05:16:48;;;;;;;7.20;4.40;;;5.20;99.90;;;;;;5036043;28;20243;-68
2022/01/06 05:19:15;;;;;;;8.00;4.32;;;5.20;99.90;;;;;;5036009;28;20204;-68
2022/01/06 05:21:42;;;;;;;4.38;3.65;;;5.10;99.90;;;;;;5036362;28;20204;-68
2022/01/06 05:24:13;;;;;;;11.07;6.65;;;5.10;99.90;;;;;;5036187;28;20647;-68
2022/01/06 05:26:40;;;;;;;9.70;5.97;;;5.10;99.90;;;;;;5035910;28;20698;-68
2022/01/06 05:29:10;;;;;;;6.03;4.53;;;5.10;99.90;;;;;;5036307;28;20220;-68
2022/01/06 05:31:37;;;;;;;4.43;4.00;;;5.10;99.90;;;;;;5035963;28;20224;-68
2022/01/06 05:34:04;;;;;;;6.22;4.07;;;5.00;99.90;;;;;;5036430;28;20667;-68
2022/01/06 05:36:31;;;;;;;6.68;4.15;;;5.10;99.90;;;;;;5036006;28;20208;-68
2022/01/06 05:38:58;;;;;;;8.40;4.68;;;5.00;99.90;;;;;;5036158;28;20300;-68
2022/01/06 05:41:25;;;;;;;6.93;4.38;;;5.00;99.90;;;;;;5035697;28;20308;-68
2022/01/06 05:43:52;;;;;;;5.97;3.95;;;5.10;99.90;;;;;;5035686;28;20622;-68
2022/01/06 05:46:20;;;;;;;4.78;3.65;;;5.10;99.90;;;;;;5035883;28;20566;-68
2022/01/06 05:48:47;;;;;;;7.43;4.05;;;5.10;99.90;;;;;;5035697;28;20224;-67
2022/01/06 05:51:15;;;;;;;6.82;4.07;;;5.10;99.90;;;;;;5035511;28;20691;-67
2022/01/06 05:53:42;;;;;;;8.18;5.07;;;5.10;99.90;;;;;;5035922;28;20200;-68
2022/01/06 05:56:09;;;;;;;7.32;4.75;;;5.20;99.90;;;;;;5035473;28;20295;-68
2022/01/06 05:58:39;;;;;;;6.30;5.00;;;5.20;99.90;;;;;;5035534;28;20282;-68
2022/01/06 06:01:06;;;;;;;7.90;4.63;;;5.20;99.90;;;;;;5034571;28;20196;-68
2022/01/06 06:03:35;;;;;;;5.70;4.18;;;5.20;99.90;;;;;;5035368;28;20298;-68
2022/01/06 06:06:01;;;;;;;6.43;4.47;;;5.20;99.90;;;;;;5035419;28;20226;-68
2022/01/06 06:08:28;;;;;;;5.97;4.47;;;5.20;99.90;;;;;;5035082;28;20318;-68
2022/01/06 06:10:55;;;;;;;6.05;4.40;;;5.20;99.90;;;;;;5035029;28;20228;-68
2022/01/06 06:13:22;;;;;;;4.75;4.15;;;5.20;99.90;;;;;;5034849;28;20208;-68
2022/01/06 06:15:49;;;;;;;6.40;4.35;;;5.20;99.90;;;;;;5035049;28;20201;-68
2022/01/06 06:18:16;;;;;;;6.35;4.25;;;5.20;99.90;;;;;;5034971;28;20643;-68
2022/01/06 06:20:44;;;;;;;7.25;3.97;;;5.30;99.90;;;;;;5034938;28;20208;-68
2022/01/06 06:23:11;;;;;;;7.75;4.38;;;5.30;99.90;;;;;;5034881;28;20733;-68
2022/01/06 06:25:38;;;;;;;5.63;4.20;;;5.40;99.90;;;;;;5034896;28;20296;-68
2022/01/06 06:28:05;;;;;;;7.50;3.97;;;5.40;99.90;;;;;;5034391;28;20232;-68
2022/01/06 06:30:32;;;;;;;5.43;3.53;;;5.40;99.90;;;;;;5034701;28;20224;-68
2022/01/06 06:33:00;;;;;;;5.70;3.83;;;5.30;99.90;;;;;;5034883;28;20290;-68
2022/01/06 06:35:27;;;;;;;6.80;4.25;;;5.30;99.90;;;;;;5034577;28;20240;-68
2022/01/06 06:37:55;;;;;;;5.38;3.75;;;5.30;99.90;;;;;;5034823;28;20251;-68
2022/01/06 06:40:23;;;;;;;5.35;4.03;;;5.30;99.90;;;;;;5034792;28;20236;-68
2022/01/06 06:42:50;;;;;;;6.57;4.35;;;5.30;99.90;;;;;;5034289;28;20686;-68
2022/01/06 06:45:17;;;;;;;6.65;4.00;;;5.30;99.90;;;;;;5034273;28;20204;-68
2022/01/06 06:47:44;;;;;;;10.50;6.07;;;5.30;99.90;;;;;;5034517;28;20706;-68
2022/01/06 06:50:12;;;;;;;7.10;3.90;;;5.30;99.90;;;;;;5034631;28;20207;-68
2022/01/06 06:52:39;;;;;;;5.35;4.10;;;5.30;99.90;;;;;;5034664;28;20219;-68
2022/01/06 06:55:08;;;;;;;4.85;2.60;;;5.30;99.90;;;;;;5034111;28;20294;-68
2022/01/06 06:57:35;;;;;;;5.00;3.75;;;5.20;99.90;;;;;;5034386;28;20235;-68
2022/01/06 07:00:04;;;;;;;6.20;4.28;;;5.10;99.90;;;;;;5034773;28;20296;-68
2022/01/06 07:02:31;;;;;;;5.95;4.20;;;5.10;99.90;;;;;;5034898;28;20299;-68
2022/01/06 07:04:58;;;;;;;8.88;3.92;;;5.10;99.90;;;;;;5034551;28;20204;-68
2022/01/06 07:07:25;;;;;;;5.50;4.13;;;5.10;99.90;;;;;;5034242;28;20224;-68
2022/01/06 07:09:52;;;;;;;5.53;3.85;;;5.10;99.90;;;;;;5034049;28;20208;-68
2022/01/06 07:12:20;;;;;;;7.57;4.45;;;5.20;99.90;;;;;;5034081;28;20319;-68
2022/01/06 07:14:47;;;;;;;3.95;3.13;;;5.20;99.90;;;;;;5034132;28;20303;-68
2022/01/06 07:17:14;;;;;;;11.07;6.22;;;5.20;99.90;;;;;;5034416;28;20655;-68
2022/01/06 07:19:40;;;;;;;6.97;4.43;;;5.10;99.90;;;;;;5034132;28;20214;-68
2022/01/06 07:22:07;;;;;;;9.02;5.30;;;5.20;99.90;;;;;;5034182;28;20774;-68
2022/01/06 07:24:36;;;;;;;5.40;4.40;;;5.20;99.90;;;;;;5033937;28;20203;-69
2022/01/06 07:27:04;;;;;;;6.32;3.88;;;5.20;99.90;;;;;;5034053;28;20236;-68
2022/01/06 07:29:32;;;;;;;6.70;4.13;;;5.20;99.90;;;;;;5033805;28;20290;-68
2022/01/06 07:31:59;;;;;;;6.03;3.92;;;5.20;99.90;;;;;;5033774;28;20220;-68
2022/01/06 07:34:26;;;;;;;6.90;4.20;;;5.30;99.90;;;;;;5034583;28;20204;-68
2022/01/06 07:36:52;;;;;;;5.40;4.38;;;5.20;99.90;;;;;;5033497;28;20338;-68
2022/01/06 07:39:19;;;;;;;6.10;3.95;;;5.30;99.90;;;;;;5033438;28;20299;-68
2022/01/06 07:41:46;;;;;;;6.22;4.15;;;5.30;99.90;;;;;;5033739;28;20742;-68
2022/01/06 07:44:13;;;;;;;6.95;4.30;;;5.30;99.90;;;;;;5033792;28;20204;-68
2022/01/06 07:46:43;;;;;;;7.18;4.15;;;5.40;99.90;;;;;;5033193;28;20670;-68
2022/01/06 07:49:09;;;;;;;6.82;4.85;;;5.30;99.90;;;;;;5033770;28;20204;-68
2022/01/06 07:51:36;;;;;;;7.38;4.05;;;5.30;99.90;;;;;;5033680;28;20258;-68
2022/01/06 07:54:04;;;;;;;4.07;3.20;;;5.30;99.90;;;;;;5033563;28;20299;-68
2022/01/06 07:56:31;;;;;;;7.45;4.75;;;5.20;99.90;;;;;;5033817;28;20294;-68
2022/01/06 07:58:58;;;;;;;6.70;4.35;;;5.10;99.90;;;;;;5033562;28;20206;-68
2022/01/06 08:01:25;;;;;;;8.70;4.05;;;5.10;99.90;;;;;;5033282;28;20235;-68
2022/01/06 08:03:53;;;;;;;10.68;4.28;;;5.10;99.90;;;;;;5033631;28;20211;-68
2022/01/06 08:06:21;;;;;;;9.48;5.05;;;5.10;99.90;;;;;;5033451;28;20684;-68
2022/01/06 08:08:48;;;;;;;8.93;4.03;;;5.00;99.90;;;;;;5033983;28;20224;-68
2022/01/06 08:11:15;;;;;;;7.38;4.28;;;5.00;99.90;;;;;;5033745;28;20224;-68
2022/01/06 08:13:42;;;;;;;8.25;4.65;;;5.00;99.90;;;;;;5033607;28;20295;-68
2022/01/06 08:16:09;;;;;;;7.60;4.20;;;5.10;99.90;;;;;;5033391;28;20641;-68
2022/01/06 08:18:36;;;;;;;7.88;4.97;;;5.10;99.90;;;;;;5033378;28;20230;-68
2022/01/06 08:21:04;;;;;;;6.97;4.40;;;5.10;99.90;;;;;;5033431;28;20733;-68
2022/01/06 08:23:31;;;;;;;10.50;4.85;;;5.10;99.90;;;;;;5034043;28;20235;-68
2022/01/06 08:25:59;;;;;;;6.53;4.57;;;5.10;99.90;;;;;;5037520;28;20200;-68
2022/01/06 08:28:26;;;;;;;5.82;4.70;;;5.10;99.90;;;;;;5037588;28;20235;-68
2022/01/06 08:30:53;;;;;;;8.98;4.75;;;5.10;99.90;;;;;;5036971;28;20234;-68
2022/01/06 08:33:20;;;;;;;7.63;5.75;;;5.20;99.90;;;;;;5037062;28;20230;-68
2022/01/06 08:35:47;;;;;;;9.30;5.57;;;5.30;99.90;;;;;;5037062;28;20688;-68
2022/01/06 08:38:15;;;;;;;6.50;4.68;;;5.40;99.90;;;;;;5036712;28;20259;-68
2022/01/06 08:40:42;;;;;;;7.80;4.97;;;5.40;99.90;;;;;;5036670;28;20674;-68
2022/01/06 08:43:09;;;;;;;9.15;4.47;;;5.30;99.90;;;;;;5036884;28;20582;-68
2022/01/06 08:45:37;;;;;;;5.20;4.65;;;5.30;99.90;;;;;;5036471;28;20678;-68
2022/01/06 08:48:05;;;;;;;8.07;4.97;;;5.30;99.90;;;;;;5036773;28;20224;-68
2022/01/06 08:50:32;;;;;;;7.13;5.28;;;5.20;99.90;;;;;;5036542;28;20214;-68
2022/01/06 08:52:59;;;;;;;8.32;5.25;;;5.20;99.90;;;;;;5036868;28;20224;-68
2022/01/06 08:55:27;;;;;;;9.52;5.47;;;5.30;99.90;;;;;;5036336;28;20738;-68
2022/01/06 08:57:54;;;;;;;8.25;4.05;;;5.30;99.90;;;;;;5036586;28;20228;-68
2022/01/06 09:00:21;;;;;;;9.52;4.60;;;5.20;99.90;;;;;;5036548;28;20210;-68
2022/01/06 09:02:48;;;;;;;7.47;4.60;;;5.10;99.90;;;;;;5036668;28;20544;-68
2022/01/06 09:05:15;;;;;;;9.63;5.40;;;5.20;99.90;;;;;;5036509;28;20295;-68
2022/01/06 09:07:42;;;;;;;7.20;4.35;;;5.20;99.90;;;;;;5036157;28;20740;-68
2022/01/06 09:10:10;;;;;;;9.85;5.45;;;5.20;99.90;;;;;;5036264;28;20200;-68
2022/01/06 09:12:39;;;;;;;7.97;5.43;;;5.20;99.90;;;;;;5036191;28;20228;-68
2022/01/06 09:15:07;;;;;;;10.63;6.72;;;5.20;99.90;;;;;;5036132;28;20578;-68
2022/01/06 09:17:36;;;;;;;5.95;4.85;;;5.20;99.90;;;;;;5036135;28;20311;-68
2022/01/06 09:20:03;;;;;;;5.95;3.90;;;5.30;99.90;;;;;;5036449;28;20254;-68
2022/01/06 09:22:30;;;;;;;7.90;6.10;;;5.20;99.90;;;;;;5036018;28;20295;-68
2022/01/06 09:24:57;;;;;;;7.05;4.70;;;5.20;99.90;;;;;;5036182;28;20210;-68
2022/01/06 09:27:24;;;;;;;7.63;4.45;;;5.20;99.90;;;;;;5035596;28;20236;-68
2022/01/06 09:29:53;;;;;;;8.43;4.97;;;5.10;99.90;;;;;;5036239;28;20211;-68
2022/01/06 09:32:20;;;;;;;9.23;4.38;;;5.10;99.90;;;;;;5035937;28;20293;-68
2022/01/06 09:34:47;;;;;;;6.93;4.63;;;5.20;99.90;;;;;;5035301;28;20200;-68
2022/01/06 09:37:14;;;;;;;7.57;5.18;;;5.10;99.90;;;;;;5035393;28;20232;-68
2022/01/06 09:39:41;;;;;;;5.15;3.75;;;5.20;99.90;;;;;;5035594;28;20210;-68
2022/01/06 09:42:09;;;;;;;6.25;4.53;;;5.20;99.90;;;;;;5035713;28;20258;-68
2022/01/06 09:44:38;;;;;;;9.48;5.30;;;5.20;99.90;;;;;;5035581;28;20614;-68
2022/01/06 09:47:07;;;;;;;7.95;5.13;;;5.30;99.90;;;;;;5035418;28;20224;-68
2022/01/06 09:49:37;;;;;;;10.40;5.70;;;5.40;99.90;;;;;;5035534;28;20200;-68
2022/01/06 09:52:05;;;;;;;10.73;5.25;;;5.50;99.90;;;;;;5035330;28;20227;-68
2022/01/06 09:54:32;;;;;;;9.40;5.65;;;5.60;99.90;;;;;;5035142;28;20575;-68
2022/01/06 09:56:59;;;;;;;6.72;4.15;;;5.70;99.90;;;;;;5034983;28;20706;-67
2022/01/06 09:59:26;;;;;;;7.55;4.82;;;5.70;99.90;;;;;;5034992;28;20737;-68
2022/01/06 10:01:53;;;;;;;5.10;4.03;;;5.70;99.90;;;;;;5035245;28;20196;-68
2022/01/06 10:04:25;;;;;;;4.75;4.13;;;5.80;99.90;;;;;;5035131;28;20211;-68
2022/01/06 10:07:00;;;;;;;10.55;4.15;;;5.70;99.90;;;;;;5035116;28;20224;-68
2022/01/06 10:09:27;;;;;;;6.65;4.10;;;5.60;99.90;;;;;;5035483;28;20208;-68
2022/01/06 10:11:56;;;;;;;8.35;4.70;;;5.70;99.90;;;;;;5035425;28;20234;-68
2022/01/06 10:14:31;;;;;;;7.10;4.45;;;5.80;99.90;;;;;;5035032;28;20253;-68
2022/01/06 10:17:00;;;;;;;7.38;4.97;;;5.80;99.90;;;;;;5035212;28;20227;-68
2022/01/06 10:19:28;;;;;;;8.88;5.35;;;5.80;99.90;;;;;;5035095;28;20204;-68
2022/01/06 10:21:58;;;;;;;7.20;4.50;;;5.70;99.90;;;;;;5035033;28;20295;-68
2022/01/06 10:24:26;;;;;;;6.88;4.70;;;5.80;99.90;;;;;;5034835;28;20232;-68
2022/01/06 10:26:55;;;;;;;9.13;4.47;;;5.80;99.90;;;;;;5034852;28;20231;-68
2022/01/06 10:29:22;;;;;;;9.55;4.63;;;5.90;99.90;;;;;;5034950;28;20286;-68
2022/01/06 10:31:49;;;;;;;6.97;5.25;;;6.00;99.90;;;;;;5034456;28;20216;-68
2022/01/06 10:34:16;;;;;;;7.43;5.30;;;6.00;99.90;;;;;;5034635;28;20311;-68
2022/01/06 10:36:48;;;;;;;8.88;4.78;;;6.10;99.90;;;;;;5034533;28;20267;-68
2022/01/06 10:39:15;;;;;;;8.50;4.05;;;6.10;99.90;;;;;;5034738;28;20532;-68
2022/01/06 10:41:42;;;;;;;5.60;3.80;;;6.10;99.90;;;;;;5034633;28;20202;-68
2022/01/06 10:44:13;;;;;;;6.28;4.97;;;6.00;99.90;;;;;;5034926;28;20669;-68
2022/01/06 10:46:42;;;;;;;6.05;4.07;;;5.90;99.90;;;;;;5034425;28;20203;-68
2022/01/06 10:49:11;;;;;;;10.40;4.32;;;5.90;99.90;;;;;;5034682;28;20291;-68
2022/01/06 10:51:41;;;;;;;10.02;3.92;;;5.80;99.90;;;;;;5034481;28;20247;-68
2022/01/06 10:54:15;;;;;;;6.82;3.88;;;5.70;99.90;;;;;;5034547;28;20635;-68
2022/01/06 10:56:42;;;;;;;5.57;4.00;;;5.60;99.90;;;;;;5034195;28;20275;-68
2022/01/06 10:59:10;;;;;;;9.18;4.00;;;5.60;99.90;;;;;;5034480;28;20204;-68
2022/01/06 11:01:37;;;;;;;9.23;4.03;;;5.60;99.90;;;;;;5034570;28;20207;-68
2022/01/06 11:04:04;;;;;;;7.90;3.60;;;5.50;99.90;;;;;;5034336;28;20294;-68
2022/01/06 11:06:32;;;;;;;5.82;3.33;;;5.60;99.90;;;;;;5034359;28;20286;-68
2022/01/06 11:08:59;;;;;;;7.30;4.00;;;5.70;99.90;;;;;;5034343;28;20214;-68
2022/01/06 11:14:27;;;;;;;8.10;3.85;;;6.00;99.90;;;;;;4992184;28;20205;-68
2022/01/06 11:16:54;;;;;;;7.80;3.00;;;6.10;99.90;;;;;;4992239;28;20304;-68
2022/01/06 11:19:23;;;;;;;6.25;3.88;;;6.20;99.90;;;;;;5010609;28;20562;-68
2022/01/06 11:21:52;;;;;;;7.35;3.60;;;6.20;99.90;;;;;;5033944;28;20291;-68
2022/01/06 11:24:20;;;;;;;6.03;3.63;;;6.30;99.90;;;;;;5033722;28;20295;-67
2022/01/06 11:27:00;;;;;;;7.43;3.70;;;6.30;99.90;;;;;;5033476;28;20226;-68
2022/01/06 11:29:28;;;;;;;4.50;2.75;;;6.30;99.90;;;;;;5033783;28;20279;-68
2022/01/06 11:31:57;;;;;;;11.80;3.70;;;6.20;99.90;;;;;;5033625;28;20224;-68
2022/01/06 11:34:24;;;;;;;6.68;3.03;;;6.20;99.90;;;;;;5033501;28;20643;-68
2022/01/06 11:36:54;;;;;;;8.13;3.42;;;6.30;99.90;;;;;;5033546;28;20258;-68
2022/01/06 11:39:24;;;;;;;8.35;3.95;;;6.40;99.90;;;;;;5033612;28;20573;-68
2022/01/06 11:41:52;;;;;;;4.88;3.20;;;6.40;99.90;;;;;;5033548;28;20239;-68
2022/01/06 11:44:23;;;;;;;5.88;3.50;;;6.30;99.90;;;;;;5033603;28;20215;-68
2022/01/06 11:46:51;;;;;;;6.75;3.30;;;6.40;99.90;;;;;;5033586;28;20533;-68
2022/01/06 11:49:31;;;;;;;6.97;3.22;;;6.50;99.90;;;;;;5033590;28;20212;-68
2022/01/06 11:52:05;;;;;;;5.47;3.40;;;6.50;99.90;;;;;;5033658;28;20222;-68
2022/01/06 11:54:32;;;;;;;8.52;3.45;;;6.60;99.90;;;;;;5033348;28;20290;-68
2022/01/06 11:56:58;;;;;;;6.50;3.33;;;6.70;99.90;;;;;;5033135;28;20316;-68
2022/01/06 11:59:31;;;;;;;5.90;3.22;;;6.60;99.90;;;;;;5035446;28;20207;-68
2022/01/06 12:01:59;;;;;;;5.63;3.20;;;6.70;99.90;;;;;;5037656;28;20188;-68
2022/01/06 12:04:26;;;;;;;6.07;3.22;;;6.70;99.90;;;;;;5037555;28;20593;-68
2022/01/06 12:07:04;;;;;;;6.95;2.90;;;6.70;99.90;;;;;;5037340;28;20231;-68
2022/01/06 12:09:31;;;;;;;4.15;3.20;;;6.60;99.90;;;;;;5037407;28;20203;-68
2022/01/06 12:12:03;;;;;;;6.50;3.30;;;6.40;99.90;;;;;;5037399;28;20224;-68
2022/01/06 12:14:32;;;;;;;6.65;3.00;;;6.30;99.90;;;;;;5037280;28;20294;-68
2022/01/06 12:17:04;;;;;;;9.82;3.85;;;6.20;99.90;;;;;;5036955;28;20234;-67
2022/01/06 12:19:30;;;;;;;5.40;3.47;;;6.10;99.90;;;;;;5036981;28;20283;-68
2022/01/06 12:21:57;;;;;;;5.32;3.42;;;6.00;99.90;;;;;;5037179;28;20222;-68
2022/01/06 12:24:24;;;;;;;4.35;3.63;;;5.80;99.90;;;;;;5036942;28;20208;-67
2022/01/06 12:26:52;;;;;;;8.25;3.50;;;5.90;99.90;;;;;;5036788;28;20302;-68
2022/01/06 12:29:20;;;;;;;6.18;4.20;;;5.90;99.90;;;;;;5036992;28;20204;-68
2022/01/06 12:31:50;;;;;;;6.72;4.32;;;6.00;99.90;;;;;;5036843;28;20570;-68
2022/01/06 12:34:20;;;;;;;6.40;3.35;;;6.10;99.90;;;;;;5037307;28;20208;-68
2022/01/06 12:36:48;;;;;;;6.82;4.10;;;6.10;99.90;;;;;;5037129;28;20204;-68
2022/01/06 12:39:16;;;;;;;7.88;3.83;;;6.20;99.90;;;;;;5036633;28;20287;-68
2022/01/06 12:41:44;;;;;;;5.65;4.00;;;6.20;99.90;;;;;;5036745;28;20299;-68
2022/01/06 12:44:17;;;;;;;6.80;4.10;;;6.10;99.90;;;;;;5036569;28;20684;-68
2022/01/06 12:46:44;;;;;;;7.30;3.88;;;6.20;99.90;;;;;;5036420;28;20290;-68
2022/01/06 12:49:12;;;;;;;5.68;3.83;;;6.10;99.90;;;;;;5036295;28;20689;-68
2022/01/06 12:51:42;;;;;;;4.13;3.55;;;6.30;99.90;;;;;;5036726;28;20299;-68
2022/01/06 12:54:13;;;;;;;5.13;3.42;;;6.30;99.90;;;;;;5036799;28;20227;-68
2022/01/06 12:56:42;;;;;;;6.22;3.65;;;6.40;99.90;;;;;;5036423;28;20736;-68
2022/01/06 12:59:11;;;;;;;7.97;3.88;;;6.40;99.90;;;;;;5036550;28;20614;-67
2022/01/06 13:01:38;;;;;;;8.32;3.92;;;6.40;99.90;;;;;;5036469;28;20230;-68
2022/01/06 13:04:06;;;;;;;8.00;3.92;;;6.40;99.90;;;;;;5036307;28;20206;-68